sensor_id;sensor_type;location;lat;lon;timestamp;temperature;humidity
66213;SHT31;53015;50.046;8.238;2023-04-03T00:01:12;5.34;73.23
66213;SHT31;53015;50.046;8.238;2023-04-03T00:03:37;5.31;73.33
66213;SHT31;53015;50.046;8.238;2023-04-03T00:06:03;5.35;72.55
66213;SHT31;53015;50.046;8.238;2023-04-03T00:08:29;5.36;72.30
66213;SHT31;53015;50.046;8.238;2023-04-03T00:10:55;5.39;71.95
66213;SHT31;53015;50.046;8.238;2023-04-03T00:13:20;5.32;72.05
66213;SHT31;53015;50.046;8.238;2023-04-03T00:15:47;5.36;72.18
66213;SHT31;53015;50.046;8.238;2023-04-03T00:18:13;5.30;72.20
66213;SHT31;53015;50.046;8.238;2023-04-03T00:20:38;5.34;71.67
66213;SHT31;53015;50.046;8.238;2023-04-03T00:23:04;5.32;71.54
66213;SHT31;53015;50.046;8.238;2023-04-03T00:25:30;5.48;71.55
66213;SHT31;53015;50.046;8.238;2023-04-03T00:27:55;5.50;71.33
66213;SHT31;53015;50.046;8.238;2023-04-03T00:30:22;5.42;71.34
66213;SHT31;53015;50.046;8.238;2023-04-03T00:32:49;5.39;71.39
66213;SHT31;53015;50.046;8.238;2023-04-03T00:35:15;5.42;71.08
66213;SHT31;53015;50.046;8.238;2023-04-03T00:37:41;5.34;70.87
66213;SHT31;53015;50.046;8.238;2023-04-03T00:40:08;5.34;71.34
66213;SHT31;53015;50.046;8.238;2023-04-03T00:42:34;5.41;70.74
66213;SHT31;53015;50.046;8.238;2023-04-03T00:48:00;5.50;70.51
66213;SHT31;53015;50.046;8.238;2023-04-03T00:50:26;5.56;70.96
66213;SHT31;53015;50.046;8.238;2023-04-03T00:52:52;5.60;70.78
66213;SHT31;53015;50.046;8.238;2023-04-03T00:55:18;5.71;70.97
66213;SHT31;53015;50.046;8.238;2023-04-03T00:57:45;5.67;70.82
66213;SHT31;53015;50.046;8.238;2023-04-03T01:00:13;5.77;71.63
66213;SHT31;53015;50.046;8.238;2023-04-03T01:02:39;5.71;70.71
66213;SHT31;53015;50.046;8.238;2023-04-03T01:05:07;5.67;70.82
66213;SHT31;53015;50.046;8.238;2023-04-03T01:07:33;5.60;70.52
66213;SHT31;53015;50.046;8.238;2023-04-03T01:10:00;5.60;71.37
66213;SHT31;53015;50.046;8.238;2023-04-03T01:12:28;5.66;70.80
66213;SHT31;53015;50.046;8.238;2023-04-03T01:14:56;5.77;69.70
66213;SHT31;53015;50.046;8.238;2023-04-03T01:17:30;5.83;70.47
66213;SHT31;53015;50.046;8.238;2023-04-03T01:20:18;6.20;71.45
66213;SHT31;53015;50.046;8.238;2023-04-03T01:22:54;6.18;70.54
66213;SHT31;53015;50.046;8.238;2023-04-03T01:25:22;6.17;70.00
66213;SHT31;53015;50.046;8.238;2023-04-03T01:27:48;6.18;71.13
66213;SHT31;53015;50.046;8.238;2023-04-03T01:30:15;5.98;70.50
66213;SHT31;53015;50.046;8.238;2023-04-03T01:32:43;6.01;70.60
66213;SHT31;53015;50.046;8.238;2023-04-03T01:35:10;5.96;71.14
66213;SHT31;53015;50.046;8.238;2023-04-03T01:37:36;6.10;71.45
66213;SHT31;53015;50.046;8.238;2023-04-03T01:40:01;6.10;71.43
66213;SHT31;53015;50.046;8.238;2023-04-03T01:42:27;6.18;71.45
66213;SHT31;53015;50.046;8.238;2023-04-03T01:44:52;6.07;71.14
66213;SHT31;53015;50.046;8.238;2023-04-03T01:47:18;5.94;71.12
66213;SHT31;53015;50.046;8.238;2023-04-03T01:49:44;5.85;71.57
66213;SHT31;53015;50.046;8.238;2023-04-03T01:52:10;6.03;72.43
66213;SHT31;53015;50.046;8.238;2023-04-03T01:54:35;5.90;71.85
66213;SHT31;53015;50.046;8.238;2023-04-03T01:57:01;5.98;71.89
66213;SHT31;53015;50.046;8.238;2023-04-03T01:59:26;5.91;71.17
66213;SHT31;53015;50.046;8.238;2023-04-03T02:01:52;5.83;71.11
66213;SHT31;53015;50.046;8.238;2023-04-03T02:04:17;5.89;71.38
66213;SHT31;53015;50.046;8.238;2023-04-03T02:06:44;6.00;71.63
66213;SHT31;53015;50.046;8.238;2023-04-03T02:09:09;5.93;70.45
66213;SHT31;53015;50.046;8.238;2023-04-03T02:11:35;5.93;71.01
66213;SHT31;53015;50.046;8.238;2023-04-03T02:14:00;5.79;70.61
66213;SHT31;53015;50.046;8.238;2023-04-03T02:16:26;5.67;70.95
66213;SHT31;53015;50.046;8.238;2023-04-03T02:18:51;5.63;71.11
66213;SHT31;53015;50.046;8.238;2023-04-03T02:21:17;5.67;71.71
66213;SHT31;53015;50.046;8.238;2023-04-03T02:23:44;5.66;71.81
66213;SHT31;53015;50.046;8.238;2023-04-03T02:26:11;5.67;72.07
66213;SHT31;53015;50.046;8.238;2023-04-03T02:28:37;5.62;72.30
66213;SHT31;53015;50.046;8.238;2023-04-03T02:31:04;5.49;72.22
66213;SHT31;53015;50.046;8.238;2023-04-03T02:33:30;5.49;72.12
66213;SHT31;53015;50.046;8.238;2023-04-03T02:35:56;5.46;72.34
66213;SHT31;53015;50.046;8.238;2023-04-03T02:38:22;5.43;72.40
66213;SHT31;53015;50.046;8.238;2023-04-03T02:40:49;5.45;72.09
66213;SHT31;53015;50.046;8.238;2023-04-03T02:43:14;5.45;72.64
66213;SHT31;53015;50.046;8.238;2023-04-03T02:45:40;5.59;72.49
66213;SHT31;53015;50.046;8.238;2023-04-03T02:48:06;5.52;72.54
66213;SHT31;53015;50.046;8.238;2023-04-03T02:50:31;5.52;72.41
66213;SHT31;53015;50.046;8.238;2023-04-03T02:52:57;5.55;72.41
66213;SHT31;53015;50.046;8.238;2023-04-03T02:55:22;5.62;72.94
66213;SHT31;53015;50.046;8.238;2023-04-03T02:57:49;5.59;73.02
66213;SHT31;53015;50.046;8.238;2023-04-03T03:00:15;5.56;73.08
66213;SHT31;53015;50.046;8.238;2023-04-03T03:02:41;5.59;73.46
66213;SHT31;53015;50.046;8.238;2023-04-03T03:05:07;5.60;73.58
66213;SHT31;53015;50.046;8.238;2023-04-03T03:07:33;5.65;73.96
66213;SHT31;53015;50.046;8.238;2023-04-03T03:09:58;5.77;74.08
66213;SHT31;53015;50.046;8.238;2023-04-03T03:12:24;5.66;73.86
66213;SHT31;53015;50.046;8.238;2023-04-03T03:14:51;5.58;73.90
66213;SHT31;53015;50.046;8.238;2023-04-03T03:17:16;5.74;74.35
66213;SHT31;53015;50.046;8.238;2023-04-03T03:19:42;5.50;74.30
66213;SHT31;53015;50.046;8.238;2023-04-03T03:22:08;5.41;75.17
66213;SHT31;53015;50.046;8.238;2023-04-03T03:24:33;5.38;75.37
66213;SHT31;53015;50.046;8.238;2023-04-03T03:26:59;5.42;75.47
66213;SHT31;53015;50.046;8.238;2023-04-03T03:29:24;5.41;75.14
66213;SHT31;53015;50.046;8.238;2023-04-03T03:31:51;5.41;75.08
66213;SHT31;53015;50.046;8.238;2023-04-03T03:34:17;5.36;75.33
66213;SHT31;53015;50.046;8.238;2023-04-03T03:36:43;5.52;75.89
66213;SHT31;53015;50.046;8.238;2023-04-03T03:39:08;5.38;75.32
66213;SHT31;53015;50.046;8.238;2023-04-03T03:41:34;5.52;75.70
66213;SHT31;53015;50.046;8.238;2023-04-03T03:43:59;5.32;74.92
66213;SHT31;53015;50.046;8.238;2023-04-03T03:46:25;5.22;74.59
66213;SHT31;53015;50.046;8.238;2023-04-03T03:48:51;5.22;74.90
66213;SHT31;53015;50.046;8.238;2023-04-03T03:51:17;5.30;74.61
66213;SHT31;53015;50.046;8.238;2023-04-03T03:53:42;5.18;73.90
66213;SHT31;53015;50.046;8.238;2023-04-03T03:56:08;5.32;74.53
66213;SHT31;53015;50.046;8.238;2023-04-03T03:58:33;5.36;74.70
66213;SHT31;53015;50.046;8.238;2023-04-03T04:01:00;5.18;74.63
66213;SHT31;53015;50.046;8.238;2023-04-03T04:03:26;5.17;74.63
66213;SHT31;53015;50.046;8.238;2023-04-03T04:05:53;5.14;74.86
66213;SHT31;53015;50.046;8.238;2023-04-03T04:08:18;5.10;75.38
66213;SHT31;53015;50.046;8.238;2023-04-03T04:10:44;4.95;75.22
66213;SHT31;53015;50.046;8.238;2023-04-03T04:13:09;4.91;75.15
66213;SHT31;53015;50.046;8.238;2023-04-03T04:15:35;4.83;75.43
66213;SHT31;53015;50.046;8.238;2023-04-03T04:18:00;4.81;73.95
66213;SHT31;53015;50.046;8.238;2023-04-03T04:20:26;4.79;74.10
66213;SHT31;53015;50.046;8.238;2023-04-03T04:22:52;4.79;74.19
66213;SHT31;53015;50.046;8.238;2023-04-03T04:25:18;4.69;74.18
66213;SHT31;53015;50.046;8.238;2023-04-03T04:27:43;4.65;73.45
66213;SHT31;53015;50.046;8.238;2023-04-03T04:30:10;4.65;73.01
66213;SHT31;53015;50.046;8.238;2023-04-03T04:32:35;4.59;72.43
66213;SHT31;53015;50.046;8.238;2023-04-03T04:35:01;4.55;72.46
66213;SHT31;53015;50.046;8.238;2023-04-03T04:37:26;4.46;72.50
66213;SHT31;53015;50.046;8.238;2023-04-03T04:39:53;4.45;73.12
66213;SHT31;53015;50.046;8.238;2023-04-03T04:42:19;4.38;73.19
66213;SHT31;53015;50.046;8.238;2023-04-03T04:44:44;4.45;73.41
66213;SHT31;53015;50.046;8.238;2023-04-03T04:47:09;4.34;74.00
66213;SHT31;53015;50.046;8.238;2023-04-03T04:49:35;4.24;74.24
66213;SHT31;53015;50.046;8.238;2023-04-03T04:52:00;4.12;74.21
66213;SHT31;53015;50.046;8.238;2023-04-03T04:54:26;3.94;74.31
66213;SHT31;53015;50.046;8.238;2023-04-03T04:56:53;3.98;74.75
66213;SHT31;53015;50.046;8.238;2023-04-03T04:59:18;3.90;74.32
66213;SHT31;53015;50.046;8.238;2023-04-03T05:01:43;3.81;74.43
66213;SHT31;53015;50.046;8.238;2023-04-03T05:04:09;3.86;74.49
66213;SHT31;53015;50.046;8.238;2023-04-03T05:06:35;3.76;74.33
66213;SHT31;53015;50.046;8.238;2023-04-03T05:09:00;3.86;74.29
66213;SHT31;53015;50.046;8.238;2023-04-03T05:11:26;3.80;74.56
66213;SHT31;53015;50.046;8.238;2023-04-03T05:13:52;3.90;74.25
66213;SHT31;53015;50.046;8.238;2023-04-03T05:16:18;3.87;74.27
66213;SHT31;53015;50.046;8.238;2023-04-03T05:18:43;3.84;74.78
66213;SHT31;53015;50.046;8.238;2023-04-03T05:21:09;3.83;75.56
66213;SHT31;53015;50.046;8.238;2023-04-03T05:23:34;3.93;75.43
66213;SHT31;53015;50.046;8.238;2023-04-03T05:26:00;3.79;74.69
66213;SHT31;53015;50.046;8.238;2023-04-03T05:28:25;3.74;75.35
66213;SHT31;53015;50.046;8.238;2023-04-03T05:30:56;3.62;75.53
66213;SHT31;53015;50.046;8.238;2023-04-03T05:33:23;3.60;75.24
66213;SHT31;53015;50.046;8.238;2023-04-03T05:35:48;3.72;75.06
66213;SHT31;53015;50.046;8.238;2023-04-03T05:38:14;3.74;74.74
66213;SHT31;53015;50.046;8.238;2023-04-03T05:40:39;3.70;75.25
66213;SHT31;53015;50.046;8.238;2023-04-03T05:43:05;3.66;74.97
66213;SHT31;53015;50.046;8.238;2023-04-03T05:45:30;3.62;74.66
66213;SHT31;53015;50.046;8.238;2023-04-03T05:47:57;3.67;74.45
66213;SHT31;53015;50.046;8.238;2023-04-03T05:50:23;3.80;74.19
66213;SHT31;53015;50.046;8.238;2023-04-03T05:52:49;3.77;74.62
66213;SHT31;53015;50.046;8.238;2023-04-03T05:55:16;3.80;74.83
66213;SHT31;53015;50.046;8.238;2023-04-03T05:57:42;3.83;73.67
66213;SHT31;53015;50.046;8.238;2023-04-03T06:00:10;3.89;74.15
66213;SHT31;53015;50.046;8.238;2023-04-03T06:02:37;4.04;74.22
66213;SHT31;53015;50.046;8.238;2023-04-03T06:05:04;3.98;72.74
66213;SHT31;53015;50.046;8.238;2023-04-03T06:07:30;4.18;73.81
66213;SHT31;53015;50.046;8.238;2023-04-03T06:09:56;4.11;72.51
66213;SHT31;53015;50.046;8.238;2023-04-03T06:12:22;4.10;72.24
66213;SHT31;53015;50.046;8.238;2023-04-03T06:14:48;4.05;71.96
66213;SHT31;53015;50.046;8.238;2023-04-03T06:17:14;4.18;72.57
66213;SHT31;53015;50.046;8.238;2023-04-03T06:19:39;4.25;71.93
66213;SHT31;53015;50.046;8.238;2023-04-03T06:22:06;4.39;72.31
66213;SHT31;53015;50.046;8.238;2023-04-03T06:24:32;4.27;71.08
66213;SHT31;53015;50.046;8.238;2023-04-03T06:26:57;4.35;71.17
66213;SHT31;53015;50.046;8.238;2023-04-03T06:29:23;4.42;70.59
66213;SHT31;53015;50.046;8.238;2023-04-03T06:31:49;4.48;70.03
66213;SHT31;53015;50.046;8.238;2023-04-03T06:34:14;4.49;69.73
66213;SHT31;53015;50.046;8.238;2023-04-03T06:36:40;4.67;70.21
66213;SHT31;53015;50.046;8.238;2023-04-03T06:39:07;4.73;69.32
66213;SHT31;53015;50.046;8.238;2023-04-03T06:41:33;4.79;69.71
66213;SHT31;53015;50.046;8.238;2023-04-03T06:43:59;4.85;70.45
66213;SHT31;53015;50.046;8.238;2023-04-03T06:46:26;4.93;70.12
66213;SHT31;53015;50.046;8.238;2023-04-03T06:48:52;4.91;70.05
66213;SHT31;53015;50.046;8.238;2023-04-03T06:51:19;4.88;69.98
66213;SHT31;53015;50.046;8.238;2023-04-03T06:53:44;4.73;69.86
66213;SHT31;53015;50.046;8.238;2023-04-03T06:56:11;4.67;68.16
66213;SHT31;53015;50.046;8.238;2023-04-03T06:58:37;4.72;68.74
66213;SHT31;53015;50.046;8.238;2023-04-03T07:01:02;4.79;68.33
66213;SHT31;53015;50.046;8.238;2023-04-03T07:03:28;4.74;69.20
66213;SHT31;53015;50.046;8.238;2023-04-03T07:05:54;4.83;67.70
66213;SHT31;53015;50.046;8.238;2023-04-03T07:08:19;4.80;67.99
66213;SHT31;53015;50.046;8.238;2023-04-03T07:10:45;4.83;67.46
66213;SHT31;53015;50.046;8.238;2023-04-03T07:13:11;4.87;67.93
66213;SHT31;53015;50.046;8.238;2023-04-03T07:15:37;4.91;68.40
66213;SHT31;53015;50.046;8.238;2023-04-03T07:18:02;4.83;67.96
66213;SHT31;53015;50.046;8.238;2023-04-03T07:20:28;4.90;67.75
66213;SHT31;53015;50.046;8.238;2023-04-03T07:22:53;5.03;67.03
66213;SHT31;53015;50.046;8.238;2023-04-03T07:25:19;5.12;66.81
66213;SHT31;53015;50.046;8.238;2023-04-03T07:27:44;5.17;66.02
66213;SHT31;53015;50.046;8.238;2023-04-03T07:30:12;5.22;66.56
66213;SHT31;53015;50.046;8.238;2023-04-03T07:32:38;5.24;65.69
66213;SHT31;53015;50.046;8.238;2023-04-03T07:35:04;5.30;66.07
66213;SHT31;53015;50.046;8.238;2023-04-03T07:37:29;5.39;65.50
66213;SHT31;53015;50.046;8.238;2023-04-03T07:39:55;5.48;65.25
66213;SHT31;53015;50.046;8.238;2023-04-03T07:42:20;5.43;64.67
66213;SHT31;53015;50.046;8.238;2023-04-03T07:44:46;5.46;65.69
66213;SHT31;53015;50.046;8.238;2023-04-03T07:47:13;5.46;66.06
66213;SHT31;53015;50.046;8.238;2023-04-03T07:49:38;5.48;65.86
66213;SHT31;53015;50.046;8.238;2023-04-03T07:52:04;5.52;66.12
66213;SHT31;53015;50.046;8.238;2023-04-03T07:54:29;5.66;64.78
66213;SHT31;53015;50.046;8.238;2023-04-03T07:56:55;5.56;64.61
66213;SHT31;53015;50.046;8.238;2023-04-03T07:59:20;5.56;64.57
66213;SHT31;53015;50.046;8.238;2023-04-03T08:01:46;5.53;64.47
66213;SHT31;53015;50.046;8.238;2023-04-03T08:04:13;5.69;64.08
66213;SHT31;53015;50.046;8.238;2023-04-03T08:06:38;5.81;64.88
66213;SHT31;53015;50.046;8.238;2023-04-03T08:09:04;5.76;64.25
66213;SHT31;53015;50.046;8.238;2023-04-03T08:11:30;5.73;64.68
66213;SHT31;53015;50.046;8.238;2023-04-03T08:13:55;5.73;64.18
66213;SHT31;53015;50.046;8.238;2023-04-03T08:16:22;5.80;65.15
66213;SHT31;53015;50.046;8.238;2023-04-03T08:18:48;5.77;63.65
66213;SHT31;53015;50.046;8.238;2023-04-03T08:21:16;5.86;63.66
66213;SHT31;53015;50.046;8.238;2023-04-03T08:23:42;5.97;64.40
66213;SHT31;53015;50.046;8.238;2023-04-03T08:26:09;5.97;64.02
66213;SHT31;53015;50.046;8.238;2023-04-03T08:28:35;6.01;63.60
66213;SHT31;53015;50.046;8.238;2023-04-03T08:31:03;6.03;63.49
66213;SHT31;53015;50.046;8.238;2023-04-03T08:33:28;6.07;64.18
66213;SHT31;53015;50.046;8.238;2023-04-03T08:35:54;6.10;64.42
66213;SHT31;53015;50.046;8.238;2023-04-03T08:38:20;6.15;63.74
66213;SHT31;53015;50.046;8.238;2023-04-03T08:40:46;6.32;62.98
66213;SHT31;53015;50.046;8.238;2023-04-03T08:43:29;6.46;62.96
66213;SHT31;53015;50.046;8.238;2023-04-03T08:46:01;6.52;62.80
66213;SHT31;53015;50.046;8.238;2023-04-03T08:48:30;6.73;62.72
66213;SHT31;53015;50.046;8.238;2023-04-03T08:50:59;6.72;62.30
66213;SHT31;53015;50.046;8.238;2023-04-03T08:53:30;6.22;62.42
66213;SHT31;53015;50.046;8.238;2023-04-03T08:55:58;6.35;63.81
66213;SHT31;53015;50.046;8.238;2023-04-03T08:58:26;6.39;62.80
66213;SHT31;53015;50.046;8.238;2023-04-03T09:00:56;6.26;62.09
66213;SHT31;53015;50.046;8.238;2023-04-03T09:03:23;6.28;62.25
66213;SHT31;53015;50.046;8.238;2023-04-03T09:05:52;6.38;61.84
66213;SHT31;53015;50.046;8.238;2023-04-03T09:08:22;6.50;61.74
66213;SHT31;53015;50.046;8.238;2023-04-03T09:10:55;6.69;60.35
66213;SHT31;53015;50.046;8.238;2023-04-03T09:13:28;6.70;60.74
66213;SHT31;53015;50.046;8.238;2023-04-03T09:15:56;6.72;58.08
66213;SHT31;53015;50.046;8.238;2023-04-03T09:18:26;6.49;58.37
66213;SHT31;53015;50.046;8.238;2023-04-03T09:20:57;6.42;58.00
66213;SHT31;53015;50.046;8.238;2023-04-03T09:23:29;6.54;58.21
66213;SHT31;53015;50.046;8.238;2023-04-03T09:26:02;6.50;57.57
66213;SHT31;53015;50.046;8.238;2023-04-03T09:28:28;6.32;57.75
66213;SHT31;53015;50.046;8.238;2023-04-03T09:30:54;6.07;57.18
66213;SHT31;53015;50.046;8.238;2023-04-03T09:33:20;6.25;58.93
66213;SHT31;53015;50.046;8.238;2023-04-03T09:35:47;6.26;58.73
66213;SHT31;53015;50.046;8.238;2023-04-03T09:38:19;6.22;60.83
66213;SHT31;53015;50.046;8.238;2023-04-03T09:40:46;6.28;59.94
66213;SHT31;53015;50.046;8.238;2023-04-03T09:43:28;6.49;59.68
66213;SHT31;53015;50.046;8.238;2023-04-03T09:45:54;6.79;59.62
66213;SHT31;53015;50.046;8.238;2023-04-03T09:48:21;7.22;58.77
66213;SHT31;53015;50.046;8.238;2023-04-03T09:51:00;7.55;58.65
66213;SHT31;53015;50.046;8.238;2023-04-03T09:53:29;7.62;57.38
66213;SHT31;53015;50.046;8.238;2023-04-03T09:55:54;7.51;56.05
66213;SHT31;53015;50.046;8.238;2023-04-03T09:58:26;7.86;57.44
66213;SHT31;53015;50.046;8.238;2023-04-03T10:00:56;7.86;55.86
66213;SHT31;53015;50.046;8.238;2023-04-03T10:03:25;8.08;57.77
66213;SHT31;53015;50.046;8.238;2023-04-03T10:05:51;7.56;57.68
66213;SHT31;53015;50.046;8.238;2023-04-03T10:08:25;7.49;57.99
66213;SHT31;53015;50.046;8.238;2023-04-03T10:11:09;7.49;59.19
66213;SHT31;53015;50.046;8.238;2023-04-03T10:13:49;7.69;59.25
66213;SHT31;53015;50.046;8.238;2023-04-03T10:16:17;7.29;59.15
66213;SHT31;53015;50.046;8.238;2023-04-03T10:18:46;7.17;60.48
66213;SHT31;53015;50.046;8.238;2023-04-03T10:21:29;7.39;60.67
66213;SHT31;53015;50.046;8.238;2023-04-03T10:23:58;6.98;61.14
66213;SHT31;53015;50.046;8.238;2023-04-03T10:26:32;7.27;59.71
66213;SHT31;53015;50.046;8.238;2023-04-03T10:29:11;7.24;58.76
66213;SHT31;53015;50.046;8.238;2023-04-03T10:31:45;6.98;60.45
66213;SHT31;53015;50.046;8.238;2023-04-03T10:34:21;6.90;60.57
66213;SHT31;53015;50.046;8.238;2023-04-03T10:36:54;6.66;60.24
66213;SHT31;53015;50.046;8.238;2023-04-03T10:39:26;6.62;60.50
66213;SHT31;53015;50.046;8.238;2023-04-03T10:42:02;6.79;59.27
66213;SHT31;53015;50.046;8.238;2023-04-03T10:44:37;6.98;59.14
66213;SHT31;53015;50.046;8.238;2023-04-03T10:47:09;7.01;59.46
66213;SHT31;53015;50.046;8.238;2023-04-03T10:49:45;6.93;59.17
66213;SHT31;53015;50.046;8.238;2023-04-03T10:52:16;7.15;59.44
66213;SHT31;53015;50.046;8.238;2023-04-03T10:54:46;7.21;57.39
66213;SHT31;53015;50.046;8.238;2023-04-03T10:57:12;6.84;57.96
66213;SHT31;53015;50.046;8.238;2023-04-03T10:59:42;6.65;58.14
66213;SHT31;53015;50.046;8.238;2023-04-03T11:02:15;6.79;57.98
66213;SHT31;53015;50.046;8.238;2023-04-03T11:04:43;6.90;58.54
66213;SHT31;53015;50.046;8.238;2023-04-03T11:07:12;6.97;58.42
66213;SHT31;53015;50.046;8.238;2023-04-03T11:09:41;6.97;59.12
66213;SHT31;53015;50.046;8.238;2023-04-03T11:12:13;7.00;58.44
66213;SHT31;53015;50.046;8.238;2023-04-03T11:14:41;7.18;58.06
66213;SHT31;53015;50.046;8.238;2023-04-03T11:17:15;7.52;58.37
66213;SHT31;53015;50.046;8.238;2023-04-03T11:19:47;7.69;56.73
66213;SHT31;53015;50.046;8.238;2023-04-03T11:22:22;7.69;56.28
66213;SHT31;53015;50.046;8.238;2023-04-03T11:24:56;7.36;57.41
66213;SHT31;53015;50.046;8.238;2023-04-03T11:27:23;7.22;56.57
66213;SHT31;53015;50.046;8.238;2023-04-03T11:29:52;7.14;56.83
66213;SHT31;53015;50.046;8.238;2023-04-03T11:32:32;7.34;58.44
66213;SHT31;53015;50.046;8.238;2023-04-03T11:35:03;7.36;57.20
66213;SHT31;53015;50.046;8.238;2023-04-03T11:37:33;7.34;56.26
66213;SHT31;53015;50.046;8.238;2023-04-03T11:40:02;7.38;56.17
66213;SHT31;53015;50.046;8.238;2023-04-03T11:42:33;7.24;55.36
66213;SHT31;53015;50.046;8.238;2023-04-03T11:45:24;7.58;56.17
66213;SHT31;53015;50.046;8.238;2023-04-03T11:47:51;7.52;55.58
66213;SHT31;53015;50.046;8.238;2023-04-03T11:50:39;7.48;55.80
66213;SHT31;53015;50.046;8.238;2023-04-03T11:53:33;7.28;55.08
66213;SHT31;53015;50.046;8.238;2023-04-03T11:56:01;7.59;56.03
66213;SHT31;53015;50.046;8.238;2023-04-03T11:58:30;7.91;54.84
66213;SHT31;53015;50.046;8.238;2023-04-03T12:01:08;8.01;53.69
66213;SHT31;53015;50.046;8.238;2023-04-03T12:06:53;8.17;54.49
66213;SHT31;53015;50.046;8.238;2023-04-03T12:09:26;7.87;53.48
66213;SHT31;53015;50.046;8.238;2023-04-03T12:11:52;8.08;54.52
66213;SHT31;53015;50.046;8.238;2023-04-03T12:14:18;8.17;53.50
66213;SHT31;53015;50.046;8.238;2023-04-03T12:16:48;7.82;53.39
66213;SHT31;53015;50.046;8.238;2023-04-03T12:19:30;7.86;53.78
66213;SHT31;53015;50.046;8.238;2023-04-03T12:22:17;8.12;53.58
66213;SHT31;53015;50.046;8.238;2023-04-03T12:24:44;7.89;51.40
66213;SHT31;53015;50.046;8.238;2023-04-03T12:27:28;7.76;52.72
66213;SHT31;53015;50.046;8.238;2023-04-03T12:30:00;7.58;51.08
66213;SHT31;53015;50.046;8.238;2023-04-03T12:35:24;7.77;51.73
66213;SHT31;53015;50.046;8.238;2023-04-03T12:38:34;7.69;52.27
66213;SHT31;53015;50.046;8.238;2023-04-03T12:41:19;8.05;52.16
66213;SHT31;53015;50.046;8.238;2023-04-03T12:44:18;7.70;50.25
66213;SHT31;53015;50.046;8.238;2023-04-03T12:46:48;7.90;50.49
66213;SHT31;53015;50.046;8.238;2023-04-03T12:49:33;8.05;51.35
66213;SHT31;53015;50.046;8.238;2023-04-03T12:51:59;8.01;49.51
66213;SHT31;53015;50.046;8.238;2023-04-03T12:54:30;7.86;49.05
66213;SHT31;53015;50.046;8.238;2023-04-03T12:57:09;8.08;51.03
66213;SHT31;53015;50.046;8.238;2023-04-03T12:59:35;7.95;48.80
66213;SHT31;53015;50.046;8.238;2023-04-03T13:02:01;8.05;49.89
66213;SHT31;53015;50.046;8.238;2023-04-03T13:04:30;8.05;49.75
66213;SHT31;53015;50.046;8.238;2023-04-03T13:06:56;8.20;49.72
66213;SHT31;53015;50.046;8.238;2023-04-03T13:09:24;8.18;49.11
66213;SHT31;53015;50.046;8.238;2023-04-03T13:11:54;8.24;49.72
66213;SHT31;53015;50.046;8.238;2023-04-03T13:14:23;7.93;49.29
66213;SHT31;53015;50.046;8.238;2023-04-03T13:16:53;8.20;50.92
66213;SHT31;53015;50.046;8.238;2023-04-03T13:19:19;8.07;48.20
66213;SHT31;53015;50.046;8.238;2023-04-03T13:21:55;8.07;47.77
66213;SHT31;53015;50.046;8.238;2023-04-03T13:24:23;8.17;48.29
66213;SHT31;53015;50.046;8.238;2023-04-03T13:26:51;8.18;47.77
66213;SHT31;53015;50.046;8.238;2023-04-03T13:29:22;8.53;49.42
66213;SHT31;53015;50.046;8.238;2023-04-03T13:31:52;8.41;46.73
66213;SHT31;53015;50.046;8.238;2023-04-03T13:34:19;8.46;47.34
66213;SHT31;53015;50.046;8.238;2023-04-03T13:36:55;8.29;47.40
66213;SHT31;53015;50.046;8.238;2023-04-03T13:39:24;8.35;47.86
66213;SHT31;53015;50.046;8.238;2023-04-03T13:41:52;8.37;47.38
66213;SHT31;53015;50.046;8.238;2023-04-03T13:44:27;8.21;47.80
66213;SHT31;53015;50.046;8.238;2023-04-03T13:46:54;8.25;48.15
66213;SHT31;53015;50.046;8.238;2023-04-03T13:49:21;8.35;47.31
66213;SHT31;53015;50.046;8.238;2023-04-03T13:51:49;8.50;46.53
66213;SHT31;53015;50.046;8.238;2023-04-03T13:54:19;8.32;46.09
66213;SHT31;53015;50.046;8.238;2023-04-03T13:56:45;8.48;47.25
66213;SHT31;53015;50.046;8.238;2023-04-03T13:59:22;8.69;46.85
66213;SHT31;53015;50.046;8.238;2023-04-03T14:01:52;8.73;45.65
66213;SHT31;53015;50.046;8.238;2023-04-03T14:04:19;8.52;44.90
66213;SHT31;53015;50.046;8.238;2023-04-03T14:06:45;8.34;46.86
66213;SHT31;53015;50.046;8.238;2023-04-03T14:09:13;8.12;47.51
66213;SHT31;53015;50.046;8.238;2023-04-03T14:11:39;8.29;48.25
66213;SHT31;53015;50.046;8.238;2023-04-03T14:14:12;8.52;47.70
66213;SHT31;53015;50.046;8.238;2023-04-03T14:16:40;8.58;49.04
66213;SHT31;53015;50.046;8.238;2023-04-03T14:19:06;8.69;48.66
66213;SHT31;53015;50.046;8.238;2023-04-03T14:21:31;8.52;47.91
66213;SHT31;53015;50.046;8.238;2023-04-03T14:23:57;8.52;47.95
66213;SHT31;53015;50.046;8.238;2023-04-03T14:26:24;8.55;47.15
66213;SHT31;53015;50.046;8.238;2023-04-03T14:28:51;8.31;47.01
66213;SHT31;53015;50.046;8.238;2023-04-03T14:31:18;8.31;47.04
66213;SHT31;53015;50.046;8.238;2023-04-03T14:33:43;8.49;47.23
66213;SHT31;53015;50.046;8.238;2023-04-03T14:36:14;8.24;46.11
66213;SHT31;53015;50.046;8.238;2023-04-03T14:38:40;8.37;46.74
66213;SHT31;53015;50.046;8.238;2023-04-03T14:41:06;8.50;46.75
66213;SHT31;53015;50.046;8.238;2023-04-03T14:43:33;8.67;47.08
66213;SHT31;53015;50.046;8.238;2023-04-03T14:45:58;8.58;46.20
66213;SHT31;53015;50.046;8.238;2023-04-03T14:48:27;8.60;47.10
66213;SHT31;53015;50.046;8.238;2023-04-03T14:50:53;8.70;46.36
66213;SHT31;53015;50.046;8.238;2023-04-03T14:53:19;8.56;45.96
66213;SHT31;53015;50.046;8.238;2023-04-03T14:55:46;8.66;47.72
66213;SHT31;53015;50.046;8.238;2023-04-03T14:58:13;8.69;47.13
66213;SHT31;53015;50.046;8.238;2023-04-03T15:00:41;8.37;45.41
66213;SHT31;53015;50.046;8.238;2023-04-03T15:03:12;8.35;45.86
66213;SHT31;53015;50.046;8.238;2023-04-03T15:05:38;8.45;47.76
66213;SHT31;53015;50.046;8.238;2023-04-03T15:08:03;8.55;46.95
66213;SHT31;53015;50.046;8.238;2023-04-03T15:10:30;8.60;46.66
66213;SHT31;53015;50.046;8.238;2023-04-03T15:12:55;8.65;46.97
66213;SHT31;53015;50.046;8.238;2023-04-03T15:15:22;8.67;46.74
66213;SHT31;53015;50.046;8.238;2023-04-03T15:17:51;8.65;47.28
66213;SHT31;53015;50.046;8.238;2023-04-03T15:20:20;8.73;48.65
66213;SHT31;53015;50.046;8.238;2023-04-03T15:22:46;8.66;46.96
66213;SHT31;53015;50.046;8.238;2023-04-03T15:25:12;8.63;46.20
66213;SHT31;53015;50.046;8.238;2023-04-03T15:27:37;8.70;47.17
66213;SHT31;53015;50.046;8.238;2023-04-03T15:30:06;8.58;46.16
66213;SHT31;53015;50.046;8.238;2023-04-03T15:32:32;8.52;46.50
66213;SHT31;53015;50.046;8.238;2023-04-03T15:34:58;8.55;47.53
66213;SHT31;53015;50.046;8.238;2023-04-03T15:37:24;8.56;46.40
66213;SHT31;53015;50.046;8.238;2023-04-03T15:39:49;8.58;47.17
66213;SHT31;53015;50.046;8.238;2023-04-03T15:42:15;8.46;46.70
66213;SHT31;53015;50.046;8.238;2023-04-03T15:44:40;8.46;47.83
66213;SHT31;53015;50.046;8.238;2023-04-03T15:47:06;8.53;48.81
66213;SHT31;53015;50.046;8.238;2023-04-03T15:49:33;8.49;48.03
66213;SHT31;53015;50.046;8.238;2023-04-03T15:52:00;8.46;48.28
66213;SHT31;53015;50.046;8.238;2023-04-03T15:54:26;8.39;47.22
66213;SHT31;53015;50.046;8.238;2023-04-03T15:56:52;8.29;46.06
66213;SHT31;53015;50.046;8.238;2023-04-03T15:59:18;8.31;45.84